Ramsar Airport

Airport
ICAO code: 
OINR
IATA Code: 
RZR
Summary
ICAO Region: 
MID
Territory: 
Location: 
Ramsar, Mazandaran Province
Serving: 
Ramsar
Elevation: 
-70 ft
Coordinates: 
Aerial View: 
36° 54' 17.697" N, 50° 40' 57.381" E
Metar
Observation
OINR 030900Z 23004KT 9999 FEW022CB SCT025 BKN090 24/21 Q1010
Station
Ramsar
Date/Time
2022-07-03 09:00:00
Wind direction
230°
Wind speed
04 kts
Lowest cloud amount
few clouds
Temperature
24°C
Dew point
21°C
Humidity
83%
QNH
1010 hPa
Weather condition
n/a

Airport 3 km south east of the centre of Ramsar in norther Iran.

Climatology

Warm Mediterranean climate (Köppen climate classification Csa).

Runways

Designator Length Width Surface Rops
13/31 1500 45 ASP No/No
Airport map: 
Aerial View: 

SKYbrary Partners:

Safety knowledge contributed by: